sensor_id;sensor_type;location;lat;lon;timestamp;temperature;humidity
61374;DHT22;47242;48.158;-1.586;2024-03-29T05:30:19;7.80;88.80
61374;DHT22;47242;48.158;-1.586;2024-03-29T05:32:44;7.80;88.70
61374;DHT22;47242;48.158;-1.586;2024-03-29T05:35:10;7.80;88.70
61374;DHT22;47242;48.158;-1.586;2024-03-29T05:37:36;7.80;88.70
61374;DHT22;47242;48.158;-1.586;2024-03-29T05:40:03;7.80;88.90
61374;DHT22;47242;48.158;-1.586;2024-03-29T05:42:34;7.80;89.00
61374;DHT22;47242;48.158;-1.586;2024-03-29T05:45:01;7.80;89.10
61374;DHT22;47242;48.158;-1.586;2024-03-29T05:47:27;7.80;89.40
61374;DHT22;47242;48.158;-1.586;2024-03-29T05:49:53;7.80;89.40
61374;DHT22;47242;48.158;-1.586;2024-03-29T05:52:19;7.90;89.50
61374;DHT22;47242;48.158;-1.586;2024-03-29T05:54:46;7.90;89.30
61374;DHT22;47242;48.158;-1.586;2024-03-29T05:57:12;8.00;89.40
61374;DHT22;47242;48.158;-1.586;2024-03-29T05:59:38;8.00;89.20
61374;DHT22;47242;48.158;-1.586;2024-03-29T06:02:04;8.00;89.20
61374;DHT22;47242;48.158;-1.586;2024-03-29T06:04:30;8.00;89.40
61374;DHT22;47242;48.158;-1.586;2024-03-29T06:07:00;8.00;89.20
61374;DHT22;47242;48.158;-1.586;2024-03-29T06:09:25;8.10;89.30
61374;DHT22;47242;48.158;-1.586;2024-03-29T06:11:53;8.20;89.30
61374;DHT22;47242;48.158;-1.586;2024-03-29T06:14:18;8.20;89.50
61374;DHT22;47242;48.158;-1.586;2024-03-29T06:17:03;8.20;89.30
61374;DHT22;47242;48.158;-1.586;2024-03-29T06:19:47;8.30;89.30
61374;DHT22;47242;48.158;-1.586;2024-03-29T06:22:26;8.30;89.20
61374;DHT22;47242;48.158;-1.586;2024-03-29T06:24:59;8.40;89.20
61374;DHT22;47242;48.158;-1.586;2024-03-29T06:27:25;8.40;89.20
61374;DHT22;47242;48.158;-1.586;2024-03-29T06:29:51;8.40;89.20
61374;DHT22;47242;48.158;-1.586;2024-03-29T06:32:17;8.50;88.90
61374;DHT22;47242;48.158;-1.586;2024-03-29T06:34:47;8.60;88.80
61374;DHT22;47242;48.158;-1.586;2024-03-29T06:37:14;8.70;88.70
61374;DHT22;47242;48.158;-1.586;2024-03-29T06:39:40;8.80;88.60
61374;DHT22;47242;48.158;-1.586;2024-03-29T06:42:07;8.80;88.30
61374;DHT22;47242;48.158;-1.586;2024-03-29T06:44:33;8.80;88.30
61374;DHT22;47242;48.158;-1.586;2024-03-29T06:46:59;8.80;88.30
61374;DHT22;47242;48.158;-1.586;2024-03-29T06:49:24;8.80;88.20
61374;DHT22;47242;48.158;-1.586;2024-03-29T06:51:50;8.90;88.30
61374;DHT22;47242;48.158;-1.586;2024-03-29T06:54:16;9.10;88.00
61374;DHT22;47242;48.158;-1.586;2024-03-29T06:56:41;9.20;87.90
61374;DHT22;47242;48.158;-1.586;2024-03-29T06:59:07;9.20;87.80
61374;DHT22;47242;48.158;-1.586;2024-03-29T07:01:33;9.40;87.60
61374;DHT22;47242;48.158;-1.586;2024-03-29T07:03:59;9.70;87.20
61374;DHT22;47242;48.158;-1.586;2024-03-29T07:06:24;10.10;86.10
61374;DHT22;47242;48.158;-1.586;2024-03-29T07:08:50;10.20;85.50
61374;DHT22;47242;48.158;-1.586;2024-03-29T07:11:16;10.00;86.10
61374;DHT22;47242;48.158;-1.586;2024-03-29T07:13:41;9.70;86.60
61374;DHT22;47242;48.158;-1.586;2024-03-29T07:16:07;9.60;87.60
61374;DHT22;47242;48.158;-1.586;2024-03-29T07:18:33;9.30;87.10
61374;DHT22;47242;48.158;-1.586;2024-03-29T07:20:58;9.20;87.20
61374;DHT22;47242;48.158;-1.586;2024-03-29T07:23:24;9.10;86.90
61374;DHT22;47242;48.158;-1.586;2024-03-29T07:26:04;9.20;86.90
61374;DHT22;47242;48.158;-1.586;2024-03-29T07:28:30;9.30;86.20
61374;DHT22;47242;48.158;-1.586;2024-03-29T07:30:56;9.40;86.00
61374;DHT22;47242;48.158;-1.586;2024-03-29T07:33:26;9.40;86.20
61374;DHT22;47242;48.158;-1.586;2024-03-29T07:35:55;9.60;86.70
61374;DHT22;47242;48.158;-1.586;2024-03-29T07:38:27;9.60;86.50
61374;DHT22;47242;48.158;-1.586;2024-03-29T07:40:52;9.60;86.70
61374;DHT22;47242;48.158;-1.586;2024-03-29T07:43:24;9.60;85.80
61374;DHT22;47242;48.158;-1.586;2024-03-29T07:45:49;9.60;86.00
61374;DHT22;47242;48.158;-1.586;2024-03-29T07:48:18;9.60;85.60
61374;DHT22;47242;48.158;-1.586;2024-03-29T07:50:45;9.60;86.00
61374;DHT22;47242;48.158;-1.586;2024-03-29T07:53:11;9.50;85.90
61374;DHT22;47242;48.158;-1.586;2024-03-29T07:55:38;9.50;85.50
61374;DHT22;47242;48.158;-1.586;2024-03-29T07:58:04;9.70;85.30
61374;DHT22;47242;48.158;-1.586;2024-03-29T08:00:34;10.30;84.20
61374;DHT22;47242;48.158;-1.586;2024-03-29T08:03:00;10.50;83.40
61374;DHT22;47242;48.158;-1.586;2024-03-29T08:05:27;10.30;82.50
61374;DHT22;47242;48.158;-1.586;2024-03-29T08:07:53;10.60;82.60
61374;DHT22;47242;48.158;-1.586;2024-03-29T08:10:20;10.80;82.00
61374;DHT22;47242;48.158;-1.586;2024-03-29T08:12:46;10.80;81.40
61374;DHT22;47242;48.158;-1.586;2024-03-29T08:15:11;11.10;80.70
61374;DHT22;47242;48.158;-1.586;2024-03-29T08:17:37;11.50;80.50
61374;DHT22;47242;48.158;-1.586;2024-03-29T08:20:04;12.00;79.90
61374;DHT22;47242;48.158;-1.586;2024-03-29T08:22:30;11.60;79.20
61374;DHT22;47242;48.158;-1.586;2024-03-29T08:24:59;11.50;79.70
61374;DHT22;47242;48.158;-1.586;2024-03-29T08:27:25;12.00;78.70
61374;DHT22;47242;48.158;-1.586;2024-03-29T08:29:51;12.50;77.90
61374;DHT22;47242;48.158;-1.586;2024-03-29T08:32:17;13.00;77.00
61374;DHT22;47242;48.158;-1.586;2024-03-29T08:34:43;13.30;75.60
61374;DHT22;47242;48.158;-1.586;2024-03-29T08:37:08;13.80;74.20
61374;DHT22;47242;48.158;-1.586;2024-03-29T08:39:35;14.00;73.90
61374;DHT22;47242;48.158;-1.586;2024-03-29T08:42:03;13.70;73.20
61374;DHT22;47242;48.158;-1.586;2024-03-29T08:44:32;13.90;74.00
61374;DHT22;47242;48.158;-1.586;2024-03-29T08:46:58;13.30;73.30
61374;DHT22;47242;48.158;-1.586;2024-03-29T08:49:24;12.80;74.50
61374;DHT22;47242;48.158;-1.586;2024-03-29T08:51:50;12.60;75.80
61374;DHT22;47242;48.158;-1.586;2024-03-29T08:54:16;12.50;76.00
61374;DHT22;47242;48.158;-1.586;2024-03-29T08:56:41;12.80;75.00
61374;DHT22;47242;48.158;-1.586;2024-03-29T08:59:07;12.60;75.60
61374;DHT22;47242;48.158;-1.586;2024-03-29T09:01:36;12.50;76.20
61374;DHT22;47242;48.158;-1.586;2024-03-29T09:04:03;12.70;76.40
61374;DHT22;47242;48.158;-1.586;2024-03-29T09:06:32;12.80;75.90
61374;DHT22;47242;48.158;-1.586;2024-03-29T09:08:59;12.80;75.70
61374;DHT22;47242;48.158;-1.586;2024-03-29T09:11:24;13.00;74.60
61374;DHT22;47242;48.158;-1.586;2024-03-29T09:13:50;13.40;73.00
61374;DHT22;47242;48.158;-1.586;2024-03-29T09:16:16;13.80;72.30
61374;DHT22;47242;48.158;-1.586;2024-03-29T09:18:41;15.00;70.10
61374;DHT22;47242;48.158;-1.586;2024-03-29T09:21:07;15.70;66.90
61374;DHT22;47242;48.158;-1.586;2024-03-29T09:23:34;16.30;64.40
61374;DHT22;47242;48.158;-1.586;2024-03-29T09:26:00;16.80;62.60
61374;DHT22;47242;48.158;-1.586;2024-03-29T09:28:29;16.20;61.60
61374;DHT22;47242;48.158;-1.586;2024-03-29T09:31:00;16.30;62.10
61374;DHT22;47242;48.158;-1.586;2024-03-29T09:33:26;16.20;62.00
61374;DHT22;47242;48.158;-1.586;2024-03-29T09:35:52;16.30;61.60
61374;DHT22;47242;48.158;-1.586;2024-03-29T09:38:19;15.70;63.10
61374;DHT22;47242;48.158;-1.586;2024-03-29T09:40:45;16.20;63.60
61374;DHT22;47242;48.158;-1.586;2024-03-29T09:43:14;16.30;62.30
61374;DHT22;47242;48.158;-1.586;2024-03-29T09:45:40;16.90;60.30
61374;DHT22;47242;48.158;-1.586;2024-03-29T09:48:08;17.40;58.10
61374;DHT22;47242;48.158;-1.586;2024-03-29T09:50:37;18.40;57.50
61374;DHT22;47242;48.158;-1.586;2024-03-29T09:53:06;18.80;53.90
61374;DHT22;47242;48.158;-1.586;2024-03-29T09:55:33;19.30;53.70
61374;DHT22;47242;48.158;-1.586;2024-03-29T09:58:01;19.10;52.90
61374;DHT22;47242;48.158;-1.586;2024-03-29T10:00:28;19.10;54.90
61374;DHT22;47242;48.158;-1.586;2024-03-29T10:02:56;18.90;54.10
61374;DHT22;47242;48.158;-1.586;2024-03-29T10:05:26;18.40;53.70
61374;DHT22;47242;48.158;-1.586;2024-03-29T10:07:53;18.20;55.50
61374;DHT22;47242;48.158;-1.586;2024-03-29T10:10:19;17.30;55.40
61374;DHT22;47242;48.158;-1.586;2024-03-29T10:12:45;17.10;56.50
61374;DHT22;47242;48.158;-1.586;2024-03-29T10:15:11;16.80;58.70
61374;DHT22;47242;48.158;-1.586;2024-03-29T10:17:47;16.30;58.80
61374;DHT22;47242;48.158;-1.586;2024-03-29T10:20:17;16.20;59.60
61374;DHT22;47242;48.158;-1.586;2024-03-29T10:22:44;15.80;62.00
61374;DHT22;47242;48.158;-1.586;2024-03-29T10:25:10;15.00;65.70
61374;DHT22;47242;48.158;-1.586;2024-03-29T10:27:37;14.50;69.10
61374;DHT22;47242;48.158;-1.586;2024-03-29T10:30:03;14.20;68.70
61374;DHT22;47242;48.158;-1.586;2024-03-29T10:32:29;14.00;69.60
61374;DHT22;47242;48.158;-1.586;2024-03-29T10:34:55;13.90;68.50
61374;DHT22;47242;48.158;-1.586;2024-03-29T10:37:22;13.80;68.20
61374;DHT22;47242;48.158;-1.586;2024-03-29T10:39:54;13.90;68.30
61374;DHT22;47242;48.158;-1.586;2024-03-29T10:42:23;14.10;69.00
61374;DHT22;47242;48.158;-1.586;2024-03-29T10:44:50;14.10;68.10
61374;DHT22;47242;48.158;-1.586;2024-03-29T10:47:20;14.20;68.20
61374;DHT22;47242;48.158;-1.586;2024-03-29T10:49:50;14.30;67.10
61374;DHT22;47242;48.158;-1.586;2024-03-29T10:52:24;14.50;67.00
61374;DHT22;47242;48.158;-1.586;2024-03-29T10:54:51;14.20;66.70
61374;DHT22;47242;48.158;-1.586;2024-03-29T10:57:25;14.00;66.00
61374;DHT22;47242;48.158;-1.586;2024-03-29T11:00:05;13.80;65.80
61374;DHT22;47242;48.158;-1.586;2024-03-29T11:05:12;13.80;65.90
61374;DHT22;47242;48.158;-1.586;2024-03-29T11:07:41;13.90;66.10
61374;DHT22;47242;48.158;-1.586;2024-03-29T11:10:17;14.00;67.20
61374;DHT22;47242;48.158;-1.586;2024-03-29T11:13:00;13.90;66.50
61374;DHT22;47242;48.158;-1.586;2024-03-29T11:15:29;14.00;65.00
61374;DHT22;47242;48.158;-1.586;2024-03-29T11:17:56;14.10;66.90
61374;DHT22;47242;48.158;-1.586;2024-03-29T11:20:26;14.30;66.00
61374;DHT22;47242;48.158;-1.586;2024-03-29T11:23:09;14.20;65.10
61374;DHT22;47242;48.158;-1.586;2024-03-29T11:28:06;14.30;62.30
61374;DHT22;47242;48.158;-1.586;2024-03-29T11:30:40;14.30;62.70
61374;DHT22;47242;48.158;-1.586;2024-03-29T11:33:06;14.60;63.50
61374;DHT22;47242;48.158;-1.586;2024-03-29T11:35:31;14.60;62.90
61374;DHT22;47242;48.158;-1.586;2024-03-29T11:38:01;14.40;62.60
61374;DHT22;47242;48.158;-1.586;2024-03-29T11:40:30;14.50;62.40
61374;DHT22;47242;48.158;-1.586;2024-03-29T11:42:56;14.70;62.50
61374;DHT22;47242;48.158;-1.586;2024-03-29T11:45:25;14.60;62.10
61374;DHT22;47242;48.158;-1.586;2024-03-29T11:47:57;14.80;61.50
61374;DHT22;47242;48.158;-1.586;2024-03-29T11:50:26;15.00;61.40
61374;DHT22;47242;48.158;-1.586;2024-03-29T11:52:51;15.20;62.10
61374;DHT22;47242;48.158;-1.586;2024-03-29T11:55:17;15.30;61.90
61374;DHT22;47242;48.158;-1.586;2024-03-29T11:57:43;15.30;62.40
61374;DHT22;47242;48.158;-1.586;2024-03-29T12:00:09;15.20;60.00
61374;DHT22;47242;48.158;-1.586;2024-03-29T12:02:35;15.10;60.60
61374;DHT22;47242;48.158;-1.586;2024-03-29T12:05:06;15.10;60.70
61374;DHT22;47242;48.158;-1.586;2024-03-29T12:07:33;15.30;59.60
61374;DHT22;47242;48.158;-1.586;2024-03-29T12:09:59;15.50;60.60
61374;DHT22;47242;48.158;-1.586;2024-03-29T12:12:25;15.60;60.20
61374;DHT22;47242;48.158;-1.586;2024-03-29T12:14:53;15.70;59.70
61374;DHT22;47242;48.158;-1.586;2024-03-29T12:17:18;15.60;59.40
61374;DHT22;47242;48.158;-1.586;2024-03-29T12:19:45;15.20;59.00
61374;DHT22;47242;48.158;-1.586;2024-03-29T12:22:13;15.20;60.20
61374;DHT22;47242;48.158;-1.586;2024-03-29T12:24:38;15.40;59.90
61374;DHT22;47242;48.158;-1.586;2024-03-29T12:27:04;15.30;59.20
61374;DHT22;47242;48.158;-1.586;2024-03-29T12:29:30;15.30;59.20
61374;DHT22;47242;48.158;-1.586;2024-03-29T12:32:02;15.30;58.70
61374;DHT22;47242;48.158;-1.586;2024-03-29T12:34:32;15.00;59.50
61374;DHT22;47242;48.158;-1.586;2024-03-29T12:36:59;14.90;59.50
61374;DHT22;47242;48.158;-1.586;2024-03-29T12:39:25;14.80;59.70
61374;DHT22;47242;48.158;-1.586;2024-03-29T12:41:51;14.90;61.40
61374;DHT22;47242;48.158;-1.586;2024-03-29T12:44:21;14.80;60.80
61374;DHT22;47242;48.158;-1.586;2024-03-29T12:46:48;14.80;61.80
61374;DHT22;47242;48.158;-1.586;2024-03-29T12:49:14;14.80;61.50
61374;DHT22;47242;48.158;-1.586;2024-03-29T12:51:40;15.10;59.50
61374;DHT22;47242;48.158;-1.586;2024-03-29T12:54:06;15.30;59.30
61374;DHT22;47242;48.158;-1.586;2024-03-29T12:56:32;15.20;59.90
61374;DHT22;47242;48.158;-1.586;2024-03-29T12:58:57;15.20;59.10
61374;DHT22;47242;48.158;-1.586;2024-03-29T13:01:23;15.30;59.60
61374;DHT22;47242;48.158;-1.586;2024-03-29T13:03:49;15.30;61.00
61374;DHT22;47242;48.158;-1.586;2024-03-29T13:06:14;15.50;59.60
61374;DHT22;47242;48.158;-1.586;2024-03-29T13:08:40;15.40;60.30
61374;DHT22;47242;48.158;-1.586;2024-03-29T13:11:05;15.50;60.60
61374;DHT22;47242;48.158;-1.586;2024-03-29T13:13:31;15.40;59.60
61374;DHT22;47242;48.158;-1.586;2024-03-29T13:15:57;15.40;59.60
61374;DHT22;47242;48.158;-1.586;2024-03-29T13:18:22;15.30;60.30
61374;DHT22;47242;48.158;-1.586;2024-03-29T13:20:48;15.50;59.90
61374;DHT22;47242;48.158;-1.586;2024-03-29T13:23:13;15.80;59.20
61374;DHT22;47242;48.158;-1.586;2024-03-29T13:25:39;15.60;58.50
61374;DHT22;47242;48.158;-1.586;2024-03-29T13:28:05;15.70;58.40
61374;DHT22;47242;48.158;-1.586;2024-03-29T13:30:33;15.90;58.50
61374;DHT22;47242;48.158;-1.586;2024-03-29T13:32:58;16.10;57.90
61374;DHT22;47242;48.158;-1.586;2024-03-29T13:35:24;16.20;57.70
61374;DHT22;47242;48.158;-1.586;2024-03-29T13:37:51;16.20;57.30
61374;DHT22;47242;48.158;-1.586;2024-03-29T13:40:20;16.20;57.00
61374;DHT22;47242;48.158;-1.586;2024-03-29T13:42:46;16.30;57.10
61374;DHT22;47242;48.158;-1.586;2024-03-29T13:45:12;16.30;57.30
61374;DHT22;47242;48.158;-1.586;2024-03-29T13:47:42;16.20;58.20
61374;DHT22;47242;48.158;-1.586;2024-03-29T13:50:09;16.20;57.00
61374;DHT22;47242;48.158;-1.586;2024-03-29T13:52:35;16.30;56.60
61374;DHT22;47242;48.158;-1.586;2024-03-29T13:55:02;16.30;56.70
61374;DHT22;47242;48.158;-1.586;2024-03-29T13:57:29;16.30;56.40
61374;DHT22;47242;48.158;-1.586;2024-03-29T13:59:54;16.20;54.90
61374;DHT22;47242;48.158;-1.586;2024-03-29T14:02:20;16.30;57.00
61374;DHT22;47242;48.158;-1.586;2024-03-29T14:04:47;16.30;56.00
61374;DHT22;47242;48.158;-1.586;2024-03-29T14:07:14;16.10;54.90
61374;DHT22;47242;48.158;-1.586;2024-03-29T14:09:43;16.20;56.10
61374;DHT22;47242;48.158;-1.586;2024-03-29T14:12:10;16.00;54.80
61374;DHT22;47242;48.158;-1.586;2024-03-29T14:14:36;16.00;55.00
61374;DHT22;47242;48.158;-1.586;2024-03-29T14:17:02;15.90;55.20
61374;DHT22;47242;48.158;-1.586;2024-03-29T14:19:41;16.00;55.50
61374;DHT22;47242;48.158;-1.586;2024-03-29T14:22:07;15.90;55.20
61374;DHT22;47242;48.158;-1.586;2024-03-29T14:24:33;16.00;55.60
61374;DHT22;47242;48.158;-1.586;2024-03-29T14:27:03;15.90;54.80
61374;DHT22;47242;48.158;-1.586;2024-03-29T14:29:32;16.00;55.50
61374;DHT22;47242;48.158;-1.586;2024-03-29T14:31:58;16.00;55.70
61374;DHT22;47242;48.158;-1.586;2024-03-29T14:34:24;15.80;55.20
61374;DHT22;47242;48.158;-1.586;2024-03-29T14:36:50;15.70;54.90
61374;DHT22;47242;48.158;-1.586;2024-03-29T14:39:16;15.70;55.10
61374;DHT22;47242;48.158;-1.586;2024-03-29T14:41:43;15.70;54.80
61374;DHT22;47242;48.158;-1.586;2024-03-29T14:44:12;15.80;55.20
61374;DHT22;47242;48.158;-1.586;2024-03-29T14:46:38;15.90;55.30
61374;DHT22;47242;48.158;-1.586;2024-03-29T14:49:04;15.90;55.20
61374;DHT22;47242;48.158;-1.586;2024-03-29T14:51:36;15.80;55.60
61374;DHT22;47242;48.158;-1.586;2024-03-29T14:54:02;15.80;56.30
61374;DHT22;47242;48.158;-1.586;2024-03-29T14:56:30;15.80;55.80
61374;DHT22;47242;48.158;-1.586;2024-03-29T14:59:04;15.90;55.60
61374;DHT22;47242;48.158;-1.586;2024-03-29T15:01:31;15.80;55.80
61374;DHT22;47242;48.158;-1.586;2024-03-29T15:03:57;15.70;56.10
61374;DHT22;47242;48.158;-1.586;2024-03-29T15:06:23;15.70;56.50
61374;DHT22;47242;48.158;-1.586;2024-03-29T15:08:50;15.70;56.90
61374;DHT22;47242;48.158;-1.586;2024-03-29T15:11:15;15.60;57.30
61374;DHT22;47242;48.158;-1.586;2024-03-29T15:13:41;15.60;57.10
61374;DHT22;47242;48.158;-1.586;2024-03-29T15:16:07;15.40;57.20
61374;DHT22;47242;48.158;-1.586;2024-03-29T15:18:33;15.30;58.20
61374;DHT22;47242;48.158;-1.586;2024-03-29T15:21:00;15.30;58.00
61374;DHT22;47242;48.158;-1.586;2024-03-29T15:23:28;15.30;58.40
61374;DHT22;47242;48.158;-1.586;2024-03-29T15:25:55;15.30;58.90
61374;DHT22;47242;48.158;-1.586;2024-03-29T15:28:21;15.30;59.60
61374;DHT22;47242;48.158;-1.586;2024-03-29T15:31:16;15.50;59.80
61374;DHT22;47242;48.158;-1.586;2024-03-29T15:33:45;15.60;59.90
61374;DHT22;47242;48.158;-1.586;2024-03-29T15:36:11;15.50;59.30
61374;DHT22;47242;48.158;-1.586;2024-03-29T15:38:38;15.50;60.20
61374;DHT22;47242;48.158;-1.586;2024-03-29T15:41:04;15.30;59.60
61374;DHT22;47242;48.158;-1.586;2024-03-29T15:43:36;15.10;60.50
61374;DHT22;47242;48.158;-1.586;2024-03-29T15:46:07;15.00;60.10
61374;DHT22;47242;48.158;-1.586;2024-03-29T15:48:33;14.80;60.30
61374;DHT22;47242;48.158;-1.586;2024-03-29T15:51:00;14.80;60.90
61374;DHT22;47242;48.158;-1.586;2024-03-29T15:53:26;14.90;61.20
61374;DHT22;47242;48.158;-1.586;2024-03-29T15:55:53;15.00;60.40
61374;DHT22;47242;48.158;-1.586;2024-03-29T15:58:18;15.00;60.60
61374;DHT22;47242;48.158;-1.586;2024-03-29T16:00:44;15.10;60.60
61374;DHT22;47242;48.158;-1.586;2024-03-29T16:03:11;15.00;60.10
61374;DHT22;47242;48.158;-1.586;2024-03-29T16:05:44;14.90;61.30
61374;DHT22;47242;48.158;-1.586;2024-03-29T16:08:11;14.80;62.20
61374;DHT22;47242;48.158;-1.586;2024-03-29T16:10:52;14.40;64.50
61374;DHT22;47242;48.158;-1.586;2024-03-29T16:13:26;14.20;68.60
61374;DHT22;47242;48.158;-1.586;2024-03-29T16:15:53;14.30;69.90
61374;DHT22;47242;48.158;-1.586;2024-03-29T16:18:20;14.40;68.10
61374;DHT22;47242;48.158;-1.586;2024-03-29T16:20:46;14.60;67.60
61374;DHT22;47242;48.158;-1.586;2024-03-29T16:23:12;14.70;66.40
61374;DHT22;47242;48.158;-1.586;2024-03-29T16:25:39;14.50;63.40
61374;DHT22;47242;48.158;-1.586;2024-03-29T16:28:07;14.50;64.50
61374;DHT22;47242;48.158;-1.586;2024-03-29T16:30:36;14.60;64.20
61374;DHT22;47242;48.158;-1.586;2024-03-29T16:33:02;14.70;64.60
61374;DHT22;47242;48.158;-1.586;2024-03-29T16:35:34;14.70;64.80
61374;DHT22;47242;48.158;-1.586;2024-03-29T16:38:00;14.60;65.00
61374;DHT22;47242;48.158;-1.586;2024-03-29T16:40:31;14.20;65.30
61374;DHT22;47242;48.158;-1.586;2024-03-29T16:42:59;14.20;65.70
61374;DHT22;47242;48.158;-1.586;2024-03-29T16:45:25;14.20;66.40
61374;DHT22;47242;48.158;-1.586;2024-03-29T16:47:51;14.10;65.80
61374;DHT22;47242;48.158;-1.586;2024-03-29T16:50:17;14.00;66.90
61374;DHT22;47242;48.158;-1.586;2024-03-29T16:52:45;14.00;66.50
61374;DHT22;47242;48.158;-1.586;2024-03-29T16:55:11;13.90;66.50
61374;DHT22;47242;48.158;-1.586;2024-03-29T16:57:51;14.00;66.70
61374;DHT22;47242;48.158;-1.586;2024-03-29T17:00:20;14.00;66.80
61374;DHT22;47242;48.158;-1.586;2024-03-29T17:02:46;14.00;67.00
61374;DHT22;47242;48.158;-1.586;2024-03-29T17:05:13;14.10;67.10
61374;DHT22;47242;48.158;-1.586;2024-03-29T17:07:38;14.30;66.70
61374;DHT22;47242;48.158;-1.586;2024-03-29T17:10:04;14.20;66.40
61374;DHT22;47242;48.158;-1.586;2024-03-29T17:12:30;14.20;66.60
61374;DHT22;47242;48.158;-1.586;2024-03-29T17:14:57;14.10;66.00
61374;DHT22;47242;48.158;-1.586;2024-03-29T17:17:24;14.10;65.30
61374;DHT22;47242;48.158;-1.586;2024-03-29T17:19:50;14.00;64.80
61374;DHT22;47242;48.158;-1.586;2024-03-29T17:22:16;13.90;65.60
61374;DHT22;47242;48.158;-1.586;2024-03-29T17:24:41;14.00;65.80
61374;DHT22;47242;48.158;-1.586;2024-03-29T17:27:07;14.00;66.10
61374;DHT22;47242;48.158;-1.586;2024-03-29T17:29:33;14.00;66.00
61374;DHT22;47242;48.158;-1.586;2024-03-29T17:32:01;13.90;66.10
61374;DHT22;47242;48.158;-1.586;2024-03-29T17:34:27;13.80;67.10
61374;DHT22;47242;48.158;-1.586;2024-03-29T17:36:52;13.60;69.10
61374;DHT22;47242;48.158;-1.586;2024-03-29T17:39:18;13.50;69.20
61374;DHT22;47242;48.158;-1.586;2024-03-29T17:41:45;13.50;70.00
61374;DHT22;47242;48.158;-1.586;2024-03-29T17:44:11;13.50;69.80
61374;DHT22;47242;48.158;-1.586;2024-03-29T17:46:42;13.50;70.20
61374;DHT22;47242;48.158;-1.586;2024-03-29T17:49:08;13.40;70.10
61374;DHT22;47242;48.158;-1.586;2024-03-29T17:51:34;13.30;70.50
61374;DHT22;47242;48.158;-1.586;2024-03-29T17:54:00;13.20;70.90
61374;DHT22;47242;48.158;-1.586;2024-03-29T17:56:25;13.20;71.60
61374;DHT22;47242;48.158;-1.586;2024-03-29T17:58:51;13.20;71.30
61374;DHT22;47242;48.158;-1.586;2024-03-29T18:01:17;13.10;71.60
61374;DHT22;47242;48.158;-1.586;2024-03-29T18:03:46;13.20;71.50
61374;DHT22;47242;48.158;-1.586;2024-03-29T18:06:13;13.10;71.40
61374;DHT22;47242;48.158;-1.586;2024-03-29T18:08:39;13.00;71.80
61374;DHT22;47242;48.158;-1.586;2024-03-29T18:11:05;13.00;71.90
61374;DHT22;47242;48.158;-1.586;2024-03-29T18:13:39;12.90;72.00
61374;DHT22;47242;48.158;-1.586;2024-03-29T18:16:05;12.90;72.10
61374;DHT22;47242;48.158;-1.586;2024-03-29T18:18:31;12.80;72.10
61374;DHT22;47242;48.158;-1.586;2024-03-29T18:20:57;12.80;71.50
61374;DHT22;47242;48.158;-1.586;2024-03-29T18:23:23;12.80;71.10
61374;DHT22;47242;48.158;-1.586;2024-03-29T18:25:49;12.70;70.70
61374;DHT22;47242;48.158;-1.586;2024-03-29T18:28:14;12.80;70.60
61374;DHT22;47242;48.158;-1.586;2024-03-29T18:30:40;12.70;70.60
61374;DHT22;47242;48.158;-1.586;2024-03-29T18:33:06;12.70;70.50
61374;DHT22;47242;48.158;-1.586;2024-03-29T18:35:33;12.70;70.60
61374;DHT22;47242;48.158;-1.586;2024-03-29T18:38:02;12.60;70.90
61374;DHT22;47242;48.158;-1.586;2024-03-29T18:40:28;12.50;70.80
61374;DHT22;47242;48.158;-1.586;2024-03-29T18:42:53;12.50;70.90
61374;DHT22;47242;48.158;-1.586;2024-03-29T18:45:19;12.50;70.70
61374;DHT22;47242;48.158;-1.586;2024-03-29T18:47:49;12.50;70.90
61374;DHT22;47242;48.158;-1.586;2024-03-29T18:50:15;12.50;70.40
61374;DHT22;47242;48.158;-1.586;2024-03-29T18:52:42;12.40;70.80
61374;DHT22;47242;48.158;-1.586;2024-03-29T18:55:08;12.30;71.30
61374;DHT22;47242;48.158;-1.586;2024-03-29T18:57:34;12.30;71.80
61374;DHT22;47242;48.158;-1.586;2024-03-29T18:59:59;12.30;71.60
61374;DHT22;47242;48.158;-1.586;2024-03-29T19:02:25;12.30;71.60
61374;DHT22;47242;48.158;-1.586;2024-03-29T19:04:51;12.20;71.40
61374;DHT22;47242;48.158;-1.586;2024-03-29T19:07:16;12.10;71.60
61374;DHT22;47242;48.158;-1.586;2024-03-29T19:09:42;12.10;71.60
61374;DHT22;47242;48.158;-1.586;2024-03-29T19:12:08;12.00;71.50
61374;DHT22;47242;48.158;-1.586;2024-03-29T19:14:33;12.00;71.40
61374;DHT22;47242;48.158;-1.586;2024-03-29T19:16:59;12.00;71.30
61374;DHT22;47242;48.158;-1.586;2024-03-29T19:19:25;12.00;71.40
61374;DHT22;47242;48.158;-1.586;2024-03-29T19:21:51;11.90;71.60
61374;DHT22;47242;48.158;-1.586;2024-03-29T19:24:18;11.80;71.80
61374;DHT22;47242;48.158;-1.586;2024-03-29T19:26:45;11.70;71.90
61374;DHT22;47242;48.158;-1.586;2024-03-29T19:29:11;11.60;71.90
61374;DHT22;47242;48.158;-1.586;2024-03-29T19:31:38;11.60;72.30
61374;DHT22;47242;48.158;-1.586;2024-03-29T19:34:07;11.60;72.30
61374;DHT22;47242;48.158;-1.586;2024-03-29T19:36:34;11.60;72.30
61374;DHT22;47242;48.158;-1.586;2024-03-29T19:39:03;11.50;72.70
61374;DHT22;47242;48.158;-1.586;2024-03-29T19:41:36;11.50;72.70
61374;DHT22;47242;48.158;-1.586;2024-03-29T19:44:02;11.50;72.90
61374;DHT22;47242;48.158;-1.586;2024-03-29T19:46:29;11.50;73.20
61374;DHT22;47242;48.158;-1.586;2024-03-29T19:48:55;11.50;73.10
61374;DHT22;47242;48.158;-1.586;2024-03-29T19:51:41;11.50;73.20
61374;DHT22;47242;48.158;-1.586;2024-03-29T19:54:30;11.60;73.50
61374;DHT22;47242;48.158;-1.586;2024-03-29T19:57:29;11.50;73.50
61374;DHT22;47242;48.158;-1.586;2024-03-29T20:00:04;11.50;73.80
61374;DHT22;47242;48.158;-1.586;2024-03-29T20:02:30;11.40;74.40
61374;DHT22;47242;48.158;-1.586;2024-03-29T20:04:56;11.40;74.70
61374;DHT22;47242;48.158;-1.586;2024-03-29T20:07:22;11.30;74.90
61374;DHT22;47242;48.158;-1.586;2024-03-29T20:09:48;11.30;75.00
61374;DHT22;47242;48.158;-1.586;2024-03-29T20:12:14;11.30;75.10
61374;DHT22;47242;48.158;-1.586;2024-03-29T20:14:40;11.30;75.00
61374;DHT22;47242;48.158;-1.586;2024-03-29T20:17:05;11.30;74.60
61374;DHT22;47242;48.158;-1.586;2024-03-29T20:19:33;11.20;74.30
61374;DHT22;47242;48.158;-1.586;2024-03-29T20:21:58;11.20;74.50
61374;DHT22;47242;48.158;-1.586;2024-03-29T20:24:24;11.20;74.50
61374;DHT22;47242;48.158;-1.586;2024-03-29T20:26:59;11.30;74.50
61374;DHT22;47242;48.158;-1.586;2024-03-29T20:29:24;11.20;74.20
61374;DHT22;47242;48.158;-1.586;2024-03-29T20:31:50;11.20;73.90
61374;DHT22;47242;48.158;-1.586;2024-03-29T20:34:19;11.20;74.10
61374;DHT22;47242;48.158;-1.586;2024-03-29T20:36:45;11.20;73.90
61374;DHT22;47242;48.158;-1.586;2024-03-29T20:39:11;11.20;74.30
61374;DHT22;47242;48.158;-1.586;2024-03-29T20:41:37;11.10;74.30
61374;DHT22;47242;48.158;-1.586;2024-03-29T20:44:05;11.20;74.10
61374;DHT22;47242;48.158;-1.586;2024-03-29T20:46:31;11.00;74.20
61374;DHT22;47242;48.158;-1.586;2024-03-29T20:48:58;11.00;74.30
61374;DHT22;47242;48.158;-1.586;2024-03-29T20:51:24;10.90;74.70
61374;DHT22;47242;48.158;-1.586;2024-03-29T20:53:50;10.90;74.90